Pagrindinis puslapis
METAR-TAF:

METAR-TAF

Oro uostai :

Entrammes

Lavalis, Prancūzija

platuma: 48-01-56N, ilguma: 000-44-34W, Aukštis: 101 m

Dabartinis oras

Ataskaita buvo paskelbta 25 minutes, ne 06:00 UTC
Vėjas 4 kt iš Pietvakarių, svyruoja nuo Pietų ir Vakarų/Pietvakarių
Temperatūra 17°C
Drėgmė 94%
Slėgis 1011 hPa
Matomumas 10 km arba daugiau
nėra debesų žemiau 1500 m ir nėra kamuolinių lietaus debesų

METAR: LFOV 200600Z AUTO 22004KT 190V250 CAVOK 17/16 Q1011

Laikas: 08:25 (06:25 UTC)


TAF: trūkstamas

Orai ataskaitas ir orų prognozės (METAR, TAF).

turimą stotys yra geltonos ir raudonos taškus žemėlapyje.

Perkelti pele per norėdami pamatyti stoties vardą.

Tada spustelėkite, norėdami matyti oro stebėjimo ir prognozės.

Norėdami pakeisti žemėlapį: spustelėkite ant žalios mygtukų su juodo kryžiaus žemyn,; žalią mygtuką su brūkšneliu, jei norite nutolinti; arba žalių rodyklių gretimoms žemėlapius.


METAR-TAF: